Time;durP1;ratioP1;P1;durP2;ratioP2;P2;SDS_P1;SDS_P2;PMS_P1;PMS_P2;Temp;Humidity;BMP_temperature;BMP_pressure;BME280_temperature;BME280_humidity;BME280_pressure;Samples;Min_cycle;Max_cycle;Signal;HPM_P1;HPM_P2
2023/07/01 00:00:41;;;;;;;9.70;4.30;;;27.00;99.90;;;;;;1817462;76;21114;-81
2023/07/01 00:03:15;;;;;;;6.72;3.87;;;27.10;99.90;;;;;;1813628;77;21228;-81
2023/07/01 00:05:48;;;;;;;6.15;3.85;;;27.10;99.90;;;;;;1793391;78;21064;-80
2023/07/01 00:08:22;;;;;;;9.28;3.98;;;27.10;99.90;;;;;;1818088;77;21128;-81
2023/07/01 00:11:00;;;;;;;7.35;3.92;;;27.10;99.90;;;;;;1817365;77;21105;-79
2023/07/01 00:13:37;;;;;;;8.45;3.60;;;27.20;99.90;;;;;;1811957;77;21167;-82
2023/07/01 00:16:14;;;;;;;11.85;4.03;;;27.20;99.90;;;;;;1845510;76;21127;-82
2023/07/01 00:18:45;;;;;;;7.67;4.10;;;27.20;99.90;;;;;;1837630;76;21507;-79
2023/07/01 00:21:20;;;;;;;6.80;4.33;;;27.20;99.90;;;;;;1809520;77;21195;-76
2023/07/01 00:24:11;;;;;;;5.75;3.67;;;27.20;99.90;;;;;;1815194;77;21105;-80
2023/07/01 00:26:48;;;;;;;6.83;4.35;;;27.30;99.90;;;;;;1849664;76;21078;-77
2023/07/01 00:29:22;;;;;;;8.25;4.15;;;27.30;99.90;;;;;;1881715;75;21595;-79
2023/07/01 00:31:56;;;;;;;6.12;3.77;;;27.30;99.90;;;;;;1848372;76;21136;-83
2023/07/01 00:34:29;;;;;;;6.87;3.90;;;27.30;99.90;;;;;;1894761;74;21089;-80
2023/07/01 00:37:04;;;;;;;6.05;3.85;;;27.40;99.90;;;;;;1818505;77;21079;-77
2023/07/01 00:39:40;;;;;;;7.30;4.77;;;27.40;99.90;;;;;;1854417;76;21690;-80
2023/07/01 00:42:12;;;;;;;6.85;3.92;;;27.40;99.90;;;;;;1852106;76;21078;-78
2023/07/01 00:44:46;;;;;;;8.25;3.98;;;27.40;99.90;;;;;;1818026;76;21625;-77
2023/07/01 00:47:18;;;;;;;7.20;3.83;;;27.70;99.90;;;;;;1819376;76;21078;-81
2023/07/01 00:49:52;;;;;;;5.55;3.77;;;27.50;99.90;;;;;;1816675;77;21168;-79
2023/07/01 00:52:27;;;;;;;6.58;3.40;;;27.50;99.90;;;;;;1794067;77;21169;-83
2023/07/01 00:55:01;;;;;;;6.53;3.80;;;27.60;99.90;;;;;;1819362;77;21125;-84
2023/07/01 00:57:36;;;;;;;;;;;27.60;99.90;;;;;;1846734;76;21121;-77
2023/07/01 01:00:18;;;;;;;14.35;8.53;;;27.70;99.90;;;;;;1844033;76;20200;-76
2023/07/01 01:03:21;;;;;;;8.48;4.10;;;27.70;99.90;;;;;;1846831;76;21175;-77
2023/07/01 01:06:05;;;;;;;7.85;4.28;;;27.70;99.90;;;;;;1838083;76;21439;-77
2023/07/01 01:08:46;;;;;;;8.15;4.50;;;27.70;99.90;;;;;;1810391;77;21046;-79
2023/07/01 01:11:26;;;;;;;10.43;5.53;;;27.80;99.90;;;;;;1850219;76;21470;-77
2023/07/01 01:13:59;;;;;;;5.70;4.28;;;27.90;99.90;;;;;;1845645;76;21183;-79
2023/07/01 01:16:36;;;;;;;7.80;4.12;;;27.90;99.90;;;;;;1858408;76;21194;-78
2023/07/01 01:19:36;;;;;;;6.72;4.58;;;28.00;99.90;;;;;;1896695;75;21117;-79
2023/07/01 01:22:28;;;;;;;18.10;5.30;;;28.10;99.90;;;;;;1818104;78;21602;-79
2023/07/01 01:25:06;;;;;;;13.25;5.95;;;28.20;99.90;;;;;;1805155;78;21136;-78
2023/07/01 01:27:44;;;;;;;8.48;4.70;;;28.30;99.90;;;;;;1886317;74;21495;-80
2023/07/01 01:30:16;;;;;;;11.05;5.37;;;28.40;99.90;;;;;;1919721;74;21176;-79
2023/07/01 01:32:49;;;;;;;11.18;4.78;;;28.50;99.90;;;;;;1839069;78;21812;-80
2023/07/01 01:35:22;;;;;;;8.73;4.83;;;28.70;99.90;;;;;;1798104;78;21081;-80
2023/07/01 01:38:07;;;;;;;7.40;4.65;;;28.70;99.90;;;;;;1848581;76;21094;-80
2023/07/01 01:40:43;;;;;;;11.95;4.62;;;28.80;99.90;;;;;;1828878;78;21124;-78
2023/07/01 01:43:21;;;;;;;9.00;5.03;;;28.90;99.90;;;;;;1835942;77;21063;-78
2023/07/01 01:45:59;;;;;;;17.32;6.25;;;29.00;99.90;;;;;;1868000;76;21109;-78
2023/07/01 01:48:33;;;;;;;12.15;5.20;;;29.00;99.90;;;;;;1851826;76;21086;-78
2023/07/01 01:51:05;;;;;;;9.18;4.67;;;29.10;99.90;;;;;;1853971;76;21146;-78
2023/07/01 01:53:41;;;;;;;9.78;4.90;;;29.20;99.90;;;;;;1817681;78;21150;-80
2023/07/01 01:56:15;;;;;;;13.48;6.37;;;29.30;99.90;;;;;;1844771;76;21053;-78
2023/07/01 01:58:51;;;;;;;7.72;4.85;;;29.40;99.90;;;;;;1834244;76;21149;-80
2023/07/01 02:01:23;;;;;;;14.85;7.37;;;;;;;;;;1841823;76;21239;-70
2023/07/01 02:03:57;;;;;;;17.27;5.80;;;29.50;99.90;;;;;;1803092;78;21129;-70
2023/07/01 02:06:30;;;;;;;18.92;5.97;;;29.60;99.90;;;;;;1827762;77;21479;-70
2023/07/01 02:09:04;;;;;;;40.28;8.30;;;29.70;99.90;;;;;;1846845;76;21186;-70
2023/07/01 02:11:36;;;;;;;19.80;7.00;;;29.80;99.90;;;;;;1852301;76;21099;-71
2023/07/01 02:14:09;;;;;;;17.37;5.10;;;29.80;99.90;;;;;;1843532;76;21627;-70
2023/07/01 02:16:41;;;;;;;45.43;11.55;;;29.90;99.90;;;;;;1808066;78;21089;-71
2023/07/01 02:19:15;;;;;;;21.05;7.00;;;30.00;99.90;;;;;;1833879;76;21109;-69
2023/07/01 02:21:50;;;;;;;;;;;30.10;99.90;;;;;;1881657;74;21078;-71
2023/07/01 02:24:25;;;;;;;43.45;11.22;;;30.10;99.90;;;;;;1878845;74;20387;-70
2023/07/01 02:26:59;;;;;;;31.65;9.10;;;30.20;99.90;;;;;;1802963;77;21218;-69
2023/07/01 02:29:31;;;;;;;19.92;7.35;;;30.20;99.90;;;;;;1893662;75;21515;-71
2023/07/01 02:32:05;;;;;;;16.85;8.38;;;30.20;99.90;;;;;;1807064;77;21096;-71
2023/07/01 02:34:38;;;;;;;9.18;4.80;;;30.30;99.90;;;;;;1807817;77;21123;-71
2023/07/01 02:37:12;;;;;;;16.42;6.60;;;30.30;99.90;;;;;;1784352;78;21203;-70
2023/07/01 02:39:45;;;;;;;34.65;9.55;;;30.30;99.90;;;;;;1836475;76;21158;-70
2023/07/01 02:42:19;;;;;;;54.42;12.05;;;30.40;99.90;;;;;;1845741;76;21551;-71
2023/07/01 02:44:53;;;;;;;12.93;5.83;;;30.40;99.90;;;;;;1857958;76;21097;-71
2023/07/01 02:47:25;;;;;;;11.93;4.97;;;30.50;99.90;;;;;;1780990;79;21556;-70
2023/07/01 02:49:57;;;;;;;8.43;4.95;;;30.50;99.90;;;;;;1822913;77;21194;-72
2023/07/01 02:52:32;;;;;;;13.48;6.95;;;30.60;99.90;;;;;;1810145;77;21084;-72
2023/07/01 02:55:07;;;;;;;12.80;7.12;;;30.60;99.90;;;;;;1842250;76;21132;-69
2023/07/01 02:57:40;;;;;;;10.10;4.95;;;30.60;99.90;;;;;;1842004;77;21559;-71
2023/07/01 03:00:14;;;;;;;11.10;6.60;;;30.70;99.90;;;;;;1846502;77;21144;-69
2023/07/01 03:02:48;;;;;;;17.17;7.40;;;30.70;99.90;;;;;;1849902;76;21637;-71
2023/07/01 03:05:29;;;;;;;15.83;7.00;;;30.80;99.90;;;;;;1851117;76;21053;-69
2023/07/01 03:08:07;;;;;;;12.95;6.37;;;30.80;99.90;;;;;;1848502;76;21161;-71
2023/07/01 03:10:40;;;;;;;10.60;5.75;;;30.90;99.90;;;;;;1844605;76;21071;-69
2023/07/01 03:13:11;;;;;;;12.78;6.30;;;31.00;99.90;;;;;;1853296;76;21145;-70
2023/07/01 03:15:42;;;;;;;10.95;6.10;;;31.10;99.90;;;;;;1850857;76;21121;-71
2023/07/01 03:18:15;;;;;;;8.10;4.92;;;31.10;99.90;;;;;;1841702;76;21167;-70
2023/07/01 03:21:00;;;;;;;8.85;5.35;;;31.20;99.90;;;;;;1848874;76;21561;-70
2023/07/01 03:23:29;;;;;;;13.32;5.80;;;31.20;99.90;;;;;;1786369;78;21122;-68
2023/07/01 03:26:07;;;;;;;24.23;8.35;;;31.30;99.90;;;;;;1846795;76;21163;-69
2023/07/01 03:28:41;;;;;;;29.95;7.75;;;31.40;99.90;;;;;;1838541;76;21073;-69
2023/07/01 03:31:14;;;;;;;7.22;5.12;;;31.50;99.90;;;;;;1855420;76;21154;-70
2023/07/01 03:33:47;;;;;;;21.27;9.08;;;31.60;99.90;;;;;;1856712;76;21459;-69
2023/07/01 03:36:21;;;;;;;9.30;5.45;;;31.50;99.90;;;;;;1826324;78;21520;-70
2023/07/01 03:38:53;;;;;;;8.48;5.03;;;31.50;99.90;;;;;;1820762;78;21150;-70
2023/07/01 03:41:26;;;;;;;13.08;6.28;;;31.60;99.90;;;;;;1787371;80;21096;-69
2023/07/01 03:43:59;;;;;;;26.00;10.10;;;31.60;99.90;;;;;;1801370;78;21497;-70
2023/07/01 03:46:32;;;;;;;12.10;6.40;;;31.60;99.90;;;;;;1898902;74;21073;-69
2023/07/01 03:49:06;;;;;;;23.67;7.75;;;31.60;99.90;;;;;;1838405;76;21090;-68
2023/07/01 03:51:41;;;;;;;11.90;5.62;;;31.60;99.90;;;;;;1881351;74;21487;-69
2023/07/01 03:54:17;;;;;;;10.15;5.45;;;31.70;99.90;;;;;;1806708;78;21127;-69
2023/07/01 03:56:51;;;;;;;10.50;4.85;;;31.80;99.90;;;;;;1818460;78;21193;-68
2023/07/01 03:59:24;;;;;;;7.15;4.60;;;31.90;99.90;;;;;;1851360;76;21267;-69
2023/07/01 04:01:59;;;;;;;5.87;4.72;;;31.90;99.90;;;;;;1863556;76;21106;-70
2023/07/01 04:04:33;;;;;;;10.10;4.80;;;32.00;99.90;;;;;;1835135;78;21090;-69
2023/07/01 04:07:05;;;;;;;11.03;4.90;;;32.10;99.90;;;;;;1801767;78;21143;-68
2023/07/01 04:09:37;;;;;;;12.00;5.55;;;32.20;99.90;;;;;;1819131;78;21217;-69
2023/07/01 04:12:10;;;;;;;12.47;5.50;;;32.20;99.90;;;;;;1839185;78;21180;-69
2023/07/01 04:14:46;;;;;;;8.25;4.60;;;32.30;99.90;;;;;;1847374;76;21081;-69
2023/07/01 04:17:19;;;;;;;7.78;4.70;;;32.40;99.90;;;;;;1845011;76;21159;-69
2023/07/01 04:19:52;;;;;;;5.83;4.60;;;32.40;99.60;;;;;;1880091;75;21106;-69
2023/07/01 04:22:25;;;;;;;9.28;5.15;;;32.60;99.60;;;;;;1837312;76;21971;-70
2023/07/01 04:24:59;;;;;;;16.37;5.55;;;32.60;99.50;;;;;;1846223;76;21154;-71
2023/07/01 04:27:33;;;;;;;10.78;5.62;;;32.70;99.80;;;;;;1897003;74;21072;-69
2023/07/01 04:30:10;;;;;;;12.18;6.90;;;32.80;99.90;;;;;;1844085;76;21503;-70
2023/07/01 04:32:42;;;;;;;7.87;4.60;;;32.90;99.70;;;;;;1852452;76;21078;-70
2023/07/01 04:35:15;;;;;;;11.68;6.12;;;32.90;99.80;;;;;;1885122;75;21530;-70
2023/07/01 04:37:48;;;;;;;8.28;4.92;;;33.00;99.20;;;;;;1829530;77;21126;-69
2023/07/01 04:40:22;;;;;;;15.48;5.83;;;33.10;98.70;;;;;;1818149;78;21105;-70
2023/07/01 04:42:54;;;;;;;6.85;3.90;;;33.10;98.90;;;;;;1867488;76;21166;-70
2023/07/01 04:45:29;;;;;;;9.38;6.00;;;33.10;98.90;;;;;;1848696;76;21259;-69
2023/07/01 04:48:04;;;;;;;15.53;5.53;;;33.10;99.10;;;;;;1797367;78;21234;-68
2023/07/01 04:50:38;;;;;;;9.53;4.45;;;33.10;98.60;;;;;;1824712;77;21097;-70
2023/07/01 04:53:15;;;;;;;5.92;4.60;;;33.10;99.10;;;;;;1805431;77;21150;-71
2023/07/01 04:55:47;;;;;;;9.23;5.28;;;33.20;99.00;;;;;;1796827;78;21559;-72
2023/07/01 04:58:19;;;;;;;11.90;5.33;;;33.10;98.80;;;;;;1836614;77;21116;-70
2023/07/01 05:00:53;;;;;;;8.88;5.20;;;33.20;99.10;;;;;;1808850;78;21093;-70
2023/07/01 05:03:26;;;;;;;15.10;5.60;;;33.30;99.10;;;;;;1834194;76;21081;-70
2023/07/01 05:05:58;;;;;;;7.22;4.12;;;33.30;99.10;;;;;;1845815;76;21144;-69
2023/07/01 05:08:33;;;;;;;6.72;4.40;;;33.30;98.50;;;;;;1889910;74;21084;-69
2023/07/01 05:11:05;;;;;;;7.78;4.35;;;33.40;98.00;;;;;;1859151;76;21165;-70
2023/07/01 05:13:39;;;;;;;5.50;4.20;;;33.40;98.20;;;;;;1866169;76;21437;-71
2023/07/01 05:16:15;;;;;;;9.43;4.80;;;33.30;98.40;;;;;;1842862;76;21190;-67
2023/07/01 05:18:48;;;;;;;17.05;5.00;;;33.20;98.20;;;;;;1851431;76;21132;-70
2023/07/01 05:21:26;;;;;;;17.00;5.45;;;33.10;98.50;;;;;;1849826;76;21111;-70
2023/07/01 05:24:04;;;;;;;;;;;33.10;99.10;;;;;;1843584;76;21076;-70
2023/07/01 05:26:36;;;;;;;8.50;4.60;;;33.10;98.80;;;;;;1840104;76;20113;-70
2023/07/01 05:29:10;;;;;;;7.55;5.37;;;33.30;98.60;;;;;;1837166;76;21666;-69
2023/07/01 05:31:44;;;;;;;6.12;4.47;;;33.50;97.90;;;;;;1888362;75;21075;-68
2023/07/01 05:34:17;;;;;;;10.10;4.53;;;33.60;97.80;;;;;;1880471;75;21613;-71
2023/07/01 05:36:51;;;;;;;8.80;4.12;;;33.70;97.30;;;;;;1877203;76;21118;-69
2023/07/01 05:39:24;;;;;;;7.85;6.20;;;33.80;96.60;;;;;;1887978;75;21069;-70
2023/07/01 05:41:59;;;;;;;9.15;4.67;;;33.80;96.90;;;;;;1830875;76;21664;-69
2023/07/01 05:44:31;;;;;;;7.28;4.40;;;33.80;97.10;;;;;;1836194;76;21570;-69
2023/07/01 05:47:02;;;;;;;10.30;4.60;;;33.80;96.80;;;;;;1870622;76;21055;-69
2023/07/01 05:49:37;;;;;;;7.20;4.15;;;33.80;96.80;;;;;;1906632;75;21076;-70
2023/07/01 05:52:09;;;;;;;7.05;3.50;;;33.70;96.70;;;;;;1811417;77;21119;-71
2023/07/01 05:54:43;;;;;;;8.68;4.30;;;33.60;97.10;;;;;;1845388;76;21170;-69
2023/07/01 05:57:16;;;;;;;6.55;4.17;;;33.60;97.40;;;;;;1838003;77;21511;-70
2023/07/01 05:59:49;;;;;;;7.03;5.03;;;33.50;97.70;;;;;;1809516;78;21561;-71
2023/07/01 06:02:22;;;;;;;7.08;4.12;;;33.40;97.20;;;;;;1787125;80;21100;-69
2023/07/01 06:04:56;;;;;;;10.20;4.95;;;33.40;97.00;;;;;;1808901;78;21181;-69
2023/07/01 06:07:30;;;;;;;7.83;4.42;;;33.40;97.00;;;;;;1838208;76;21485;-70
2023/07/01 06:10:05;;;;;;;9.88;4.42;;;33.40;97.40;;;;;;1902927;75;21111;-70
2023/07/01 06:12:36;;;;;;;14.40;5.10;;;33.50;97.50;;;;;;1882530;75;21160;-70
2023/07/01 06:15:08;;;;;;;9.53;4.53;;;33.50;97.60;;;;;;1800484;78;21122;-70
2023/07/01 06:17:53;;;;;;;9.55;4.62;;;33.60;97.80;;;;;;1902723;75;21559;-68
2023/07/01 06:20:27;;;;;;;11.33;4.45;;;33.60;97.60;;;;;;1807581;78;21076;-69
2023/07/01 06:23:02;;;;;;;16.32;6.58;;;33.70;97.00;;;;;;1787333;79;21519;-70
2023/07/01 06:25:36;;;;;;;7.35;4.50;;;33.60;97.10;;;;;;1847179;76;21080;-71
2023/07/01 06:28:08;;;;;;;11.75;5.53;;;33.60;97.00;;;;;;1882701;75;21116;-71
2023/07/01 06:30:42;;;;;;;10.65;6.60;;;33.60;97.20;;;;;;1833347;78;21100;-70
2023/07/01 06:33:14;;;;;;;11.57;5.03;;;33.60;97.50;;;;;;1837843;76;21095;-70
2023/07/01 06:35:48;;;;;;;12.35;4.65;;;33.60;97.30;;;;;;1819228;78;21535;-70
2023/07/01 06:38:22;;;;;;;12.00;4.58;;;33.60;96.70;;;;;;1844148;76;21091;-71
2023/07/01 06:40:55;;;;;;;9.80;4.33;;;33.60;96.90;;;;;;1809622;78;21170;-70
2023/07/01 06:43:30;;;;;;;12.60;4.90;;;33.50;96.60;;;;;;1872626;76;21152;-67
2023/07/01 06:46:03;;;;;;;37.90;8.00;;;33.40;97.10;;;;;;1862427;76;21100;-65
2023/07/01 06:48:36;;;;;;;28.83;8.80;;;33.40;97.10;;;;;;1840267;76;21138;-68
2023/07/01 06:51:09;;;;;;;7.80;4.25;;;33.40;97.30;;;;;;1819766;76;21131;-69
2023/07/01 06:53:42;;;;;;;13.35;4.08;;;33.50;97.00;;;;;;1831097;76;21499;-70
2023/07/01 06:56:17;;;;;;;18.07;4.87;;;33.50;97.20;;;;;;1771525;80;21137;-69
2023/07/01 06:58:50;;;;;;;16.27;4.85;;;33.60;97.30;;;;;;1834372;77;21123;-70
2023/07/01 07:01:23;;;;;;;14.30;5.35;;;33.60;96.70;;;;;;1803687;77;21151;-70
2023/07/01 07:03:56;;;;;;;5.67;3.87;;;33.70;96.30;;;;;;1806288;79;21087;-70
2023/07/01 07:06:32;;;;;;;11.45;4.42;;;33.80;96.00;;;;;;1858307;76;21120;-70
2023/07/01 07:09:06;;;;;;;9.80;4.40;;;33.70;96.60;;;;;;1888791;75;21197;-69
2023/07/01 07:11:41;;;;;;;8.50;4.62;;;33.70;96.80;;;;;;1894983;75;21130;-70
2023/07/01 07:14:13;;;;;;;19.07;5.25;;;33.70;96.90;;;;;;1836665;76;21150;-69
2023/07/01 07:16:50;;;;;;;16.45;6.05;;;33.70;96.40;;;;;;1838860;76;21265;-69
2023/07/01 07:19:24;;;;;;;15.55;5.28;;;33.70;96.70;;;;;;1791608;78;21208;-70
2023/07/01 07:21:58;;;;;;;7.20;3.80;;;33.60;96.80;;;;;;1796051;79;21100;-69
2023/07/01 07:24:35;;;;;;;5.78;3.98;;;33.60;96.90;;;;;;1785938;80;21095;-69
2023/07/01 07:27:08;;;;;;;20.48;6.90;;;33.50;96.70;;;;;;1821421;78;21089;-70
2023/07/01 07:29:40;;;;;;;12.80;5.80;;;33.40;96.80;;;;;;1833987;76;21508;-69
2023/07/01 07:32:13;;;;;;;6.85;4.58;;;33.40;96.60;;;;;;1834422;76;21088;-71
2023/07/01 07:34:47;;;;;;;17.40;5.12;;;33.30;96.60;;;;;;1845479;76;21461;-69
2023/07/01 07:37:18;;;;;;;12.93;5.05;;;33.20;96.60;;;;;;1894779;75;21051;-70
2023/07/01 07:39:53;;;;;;;18.25;8.35;;;33.20;96.70;;;;;;1879318;75;21587;-69
2023/07/01 07:42:30;;;;;;;9.65;5.62;;;33.20;96.60;;;;;;1852696;76;21159;-70
2023/07/01 07:45:19;;;;;;;6.37;4.00;;;33.20;96.60;;;;;;1805545;78;21084;-70
2023/07/01 07:47:46;;;;;;;14.35;6.00;;;33.30;96.70;;;;;;1800282;78;21087;-70
2023/07/01 07:50:21;;;;;;;10.48;4.62;;;33.50;96.50;;;;;;1848982;76;21530;-71
2023/07/01 07:52:54;;;;;;;15.70;5.60;;;33.60;96.10;;;;;;1841004;76;21124;-69
2023/07/01 07:55:33;;;;;;;22.15;5.12;;;33.70;95.80;;;;;;1842763;76;21074;-69
2023/07/01 07:58:04;;;;;;;9.75;3.47;;;33.80;96.20;;;;;;1843136;76;21085;-69
2023/07/01 08:00:38;;;;;;;11.53;4.37;;;33.90;95.10;;;;;;1795250;78;21105;-71
2023/07/01 08:03:15;;;;;;;11.00;4.47;;;33.90;94.70;;;;;;1837327;76;21081;-69
2023/07/01 08:05:51;;;;;;;14.53;4.70;;;33.90;94.80;;;;;;1804473;78;21162;-70
2023/07/01 08:08:23;;;;;;;;;;;33.90;94.80;;;;;;1835987;78;21566;-70
2023/07/01 08:10:56;;;;;;;14.95;4.40;;;33.90;95.00;;;;;;1848372;76;20457;-70
2023/07/01 08:13:27;;;;;;;12.88;4.15;;;34.00;94.80;;;;;;1845048;76;21081;-71
2023/07/01 08:15:59;;;;;;;8.80;3.37;;;34.00;94.20;;;;;;1808961;78;21091;-71
2023/07/01 08:18:31;;;;;;;6.53;3.40;;;34.00;94.90;;;;;;1878850;75;21063;-69
2023/07/01 08:21:07;;;;;;;7.17;3.90;;;34.10;94.50;;;;;;1873431;76;21091;-70
2023/07/01 08:23:41;;;;;;;7.03;3.30;;;34.10;94.40;;;;;;1877991;76;21500;-70
2023/07/01 08:26:14;;;;;;;5.37;3.17;;;34.10;94.30;;;;;;1916357;75;21100;-72
2023/07/01 08:28:46;;;;;;;14.25;4.67;;;34.00;93.80;;;;;;1808324;78;21071;-71
2023/07/01 08:31:19;;;;;;;9.45;3.75;;;34.00;93.60;;;;;;1800627;78;21106;-72
2023/07/01 08:33:54;;;;;;;5.78;3.50;;;34.10;93.30;;;;;;1837935;77;21066;-70
2023/07/01 08:36:30;;;;;;;7.20;4.00;;;34.10;93.70;;;;;;1876622;76;21657;-75
2023/07/01 08:39:07;;;;;;;6.22;3.17;;;34.10;93.80;;;;;;1819507;78;21135;-70
2023/07/01 08:41:44;;;;;;;4.45;2.95;;;34.00;94.00;;;;;;1806625;77;21183;-71
2023/07/01 08:44:22;;;;;;;6.72;3.62;;;34.00;94.10;;;;;;1795690;78;21137;-70
2023/07/01 08:46:55;;;;;;;7.97;3.77;;;34.00;94.30;;;;;;1817665;78;21535;-70
2023/07/01 08:49:29;;;;;;;7.33;4.40;;;34.00;94.10;;;;;;1815289;77;21138;-70
2023/07/01 08:52:08;;;;;;;10.03;3.90;;;34.00;93.50;;;;;;1804167;79;21109;-70
2023/07/01 08:54:41;;;;;;;7.58;3.72;;;34.00;93.70;;;;;;1797418;78;21119;-69
2023/07/01 08:57:16;;;;;;;6.67;2.80;;;34.00;93.70;;;;;;1838912;76;21195;-70
2023/07/01 08:59:50;;;;;;;5.37;2.85;;;34.00;93.80;;;;;;1842977;76;21190;-68
2023/07/01 09:02:25;;;;;;;6.37;3.20;;;34.00;93.40;;;;;;1840321;76;21064;-70
2023/07/01 09:04:59;;;;;;;8.60;3.47;;;34.00;93.30;;;;;;1838642;76;21080;-70
2023/07/01 09:07:32;;;;;;;21.55;6.47;;;34.00;93.70;;;;;;1843379;77;21083;-71
2023/07/01 09:10:04;;;;;;;12.03;5.47;;;34.10;93.10;;;;;;1836064;78;21072;-70
2023/07/01 09:12:37;;;;;;;15.55;4.90;;;34.00;93.20;;;;;;1873652;75;21810;-70
2023/07/01 09:15:10;;;;;;;7.30;3.85;;;34.00;93.10;;;;;;1836105;77;21088;-71
2023/07/01 09:17:46;;;;;;;6.78;3.37;;;34.00;93.70;;;;;;1835616;76;21112;-71
2023/07/01 09:20:23;;;;;;;13.62;4.97;;;34.10;93.60;;;;;;1834808;77;21128;-71
2023/07/01 09:23:00;;;;;;;4.83;2.90;;;34.10;93.30;;;;;;1843539;76;21054;-71
2023/07/01 09:25:33;;;;;;;5.20;3.55;;;34.10;92.70;;;;;;1808522;77;21516;-69
2023/07/01 09:28:08;;;;;;;;;;;34.10;93.30;;;;;;1845749;76;21519;-70
2023/07/01 09:30:42;;;;;;;8.25;5.10;;;34.20;95.00;;;;;;1845742;76;20183;-69
2023/07/01 09:33:16;;;;;;;12.28;5.45;;;34.20;92.90;;;;;;1821986;77;21107;-77
2023/07/01 09:35:57;;;;;;;5.80;3.92;;;34.20;93.50;;;;;;1783276;79;21111;-82
2023/07/01 09:38:26;;;;;;;6.37;3.67;;;34.20;93.60;;;;;;1788701;78;21087;-77
2023/07/01 09:41:18;;;;;;;7.55;3.83;;;34.20;93.60;;;;;;1823074;77;21213;-77
2023/07/01 09:44:00;;;;;;;7.37;4.50;;;34.10;93.80;;;;;;1840805;77;21621;-81
2023/07/01 09:46:43;;;;;;;7.85;4.67;;;34.10;94.00;;;;;;1849463;76;21164;-80
2023/07/01 09:49:18;;;;;;;8.70;3.70;;;34.10;94.00;;;;;;1854390;76;21085;-79
2023/07/01 09:52:03;;;;;;;10.58;5.25;;;34.10;93.90;;;;;;1824023;77;21668;-82
2023/07/01 09:54:42;;;;;;;13.85;6.00;;;34.10;94.20;;;;;;1851937;77;21118;-81
2023/07/01 09:57:34;;;;;;;9.65;4.95;;;34.00;94.40;;;;;;1853276;77;21202;-78
2023/07/01 10:00:16;;;;;;;10.45;3.75;;;34.00;93.70;;;;;;1854176;77;21073;-82
2023/07/01 10:02:50;;;;;;;12.90;5.55;;;34.00;93.40;;;;;;1857612;76;21114;-81
2023/07/01 10:05:23;;;;;;;9.35;5.20;;;34.00;94.30;;;;;;1819893;76;21141;-84
2023/07/01 10:07:56;;;;;;;11.93;4.92;;;34.00;94.60;;;;;;1851088;76;21078;-83
2023/07/01 10:10:29;;;;;;;9.23;5.83;;;34.00;95.00;;;;;;1856080;75;21899;-82
2023/07/01 10:13:06;;;;;;;10.20;5.85;;;34.00;95.00;;;;;;1879990;75;21105;-83
2023/07/01 10:15:49;;;;;;;8.98;5.28;;;33.90;95.10;;;;;;1906839;75;21215;-79
2023/07/01 10:18:26;;;;;;;10.48;5.92;;;33.80;95.20;;;;;;1922230;74;21103;-80
2023/07/01 10:21:24;;;;;;;7.58;4.70;;;33.70;95.30;;;;;;1905071;74;21111;-81
2023/07/01 10:24:03;;;;;;;12.93;5.25;;;33.60;95.50;;;;;;1857309;76;21084;-79
2023/07/01 10:26:53;;;;;;;7.42;2.90;;;33.50;95.50;;;;;;1845802;76;21147;-78
2023/07/01 10:29:37;;;;;;;11.22;2.70;;;33.30;94.50;;;;;;1838673;77;21149;-78
2023/07/01 10:32:16;;;;;;;11.43;2.72;;;33.00;94.50;;;;;;1836807;76;21095;-80
2023/07/01 10:34:59;;;;;;;7.40;2.27;;;32.60;94.60;;;;;;1849237;76;21213;-80
2023/07/01 10:37:38;;;;;;;6.47;2.40;;;32.40;94.70;;;;;;1832528;77;21095;-77
2023/07/01 10:40:34;;;;;;;9.05;2.90;;;32.20;95.50;;;;;;1788581;79;21657;-82
2023/07/01 10:43:36;;;;;;;4.42;2.35;;;31.90;95.70;;;;;;1838920;76;21061;-80
2023/07/01 10:46:28;;;;;;;6.20;1.80;;;31.70;95.90;;;;;;1843371;76;21105;-80
2023/07/01 10:49:08;;;;;;;3.17;1.70;;;31.60;95.90;;;;;;1861229;76;21167;-81
2023/07/01 10:51:48;;;;;;;6.20;1.72;;;31.40;96.00;;;;;;1856179;76;21252;-79
2023/07/01 10:54:39;;;;;;;3.98;1.72;;;31.20;96.30;;;;;;1841871;76;21099;-79
2023/07/01 10:57:18;;;;;;;2.92;1.30;;;31.10;96.30;;;;;;1846731;76;21545;-83
2023/07/01 10:59:51;;;;;;;3.33;1.85;;;31.00;96.20;;;;;;1859524;76;21104;-84
2023/07/01 11:02:39;;;;;;;5.72;2.22;;;30.80;96.70;;;;;;1827884;78;21127;-80
2023/07/01 11:05:14;;;;;;;6.75;1.95;;;30.70;97.40;;;;;;1814292;78;21097;-80
2023/07/01 11:07:46;;;;;;;7.37;2.35;;;30.70;98.10;;;;;;1856031;76;21170;-83
2023/07/01 11:10:20;;;;;;;5.03;2.20;;;30.60;98.40;;;;;;1822320;78;21484;-80
2023/07/01 11:12:59;;;;;;;18.07;3.83;;;30.40;99.20;;;;;;1828180;78;21662;-79
2023/07/01 11:15:33;;;;;;;17.70;4.85;;;30.30;99.90;;;;;;1851701;76;21111;-81
2023/07/01 11:18:05;;;;;;;9.80;4.00;;;30.10;99.90;;;;;;1858951;76;21069;-81
2023/07/01 11:20:51;;;;;;;8.35;3.42;;;29.80;99.90;;;;;;1852243;76;21210;-82
2023/07/01 11:23:26;;;;;;;9.68;3.20;;;29.60;99.90;;;;;;1808535;77;21096;-79
2023/07/01 11:26:24;;;;;;;9.15;3.70;;;29.40;99.90;;;;;;1840619;76;21290;-79
2023/07/01 11:28:58;;;;;;;8.78;3.60;;;29.20;99.90;;;;;;1810305;78;21100;-77
2023/07/01 11:31:37;;;;;;;6.90;3.22;;;29.10;99.90;;;;;;1837976;77;21208;-77
2023/07/01 11:34:15;;;;;;;6.17;3.33;;;29.00;99.90;;;;;;1825765;78;21249;-79
2023/07/01 11:36:57;;;;;;;7.08;3.87;;;28.80;99.90;;;;;;1852888;76;21066;-81
2023/07/01 11:39:33;;;;;;;6.70;3.90;;;28.60;99.90;;;;;;1882838;76;21094;-80
2023/07/01 11:42:07;;;;;;;7.95;4.47;;;28.50;99.90;;;;;;1860040;76;21063;-81
2023/07/01 11:44:47;;;;;;;8.00;4.47;;;28.50;99.90;;;;;;1844518;76;21188;-82
2023/07/01 11:47:24;;;;;;;11.55;4.62;;;28.60;99.90;;;;;;1813382;77;21191;-80
2023/07/01 11:50:13;;;;;;;9.53;3.90;;;28.70;99.90;;;;;;1805018;77;21629;-78
2023/07/01 11:53:14;;;;;;;9.20;3.90;;;28.70;99.90;;;;;;1832436;76;21263;-81
2023/07/01 11:55:47;;;;;;;8.98;3.80;;;28.80;99.90;;;;;;1797058;79;21181;-78
2023/07/01 11:58:33;;;;;;;6.35;3.85;;;28.80;99.90;;;;;;1833891;77;21118;-82
2023/07/01 12:01:10;;;;;;;8.15;4.10;;;28.80;99.90;;;;;;1848332;75;21202;-79
2023/07/01 12:03:44;;;;;;;8.98;4.28;;;28.80;99.90;;;;;;1842759;76;21506;-82
2023/07/01 12:06:27;;;;;;;7.55;4.17;;;28.80;99.90;;;;;;1823493;77;21135;-79
2023/07/01 12:09:07;;;;;;;7.17;4.28;;;28.80;99.90;;;;;;1838581;76;21072;-79
2023/07/01 12:11:47;;;;;;;9.85;4.37;;;28.70;99.90;;;;;;1887562;74;21156;-78
2023/07/01 12:14:22;;;;;;;6.47;3.72;;;28.60;99.90;;;;;;1828950;77;21500;-80
2023/07/01 12:16:58;;;;;;;5.92;4.12;;;28.60;99.90;;;;;;1816257;77;21095;-79
2023/07/01 12:19:30;;;;;;;8.88;5.03;;;28.60;99.90;;;;;;1830727;78;21105;-79
2023/07/01 12:22:04;;;;;;;6.40;4.03;;;28.60;99.90;;;;;;1817608;77;21139;-82
2023/07/01 12:24:39;;;;;;;10.05;4.30;;;28.50;99.90;;;;;;1783636;78;21110;-81
2023/07/01 12:27:13;;;;;;;7.70;4.40;;;28.50;99.90;;;;;;1820244;77;21131;-83
2023/07/01 12:29:50;;;;;;;9.50;4.55;;;28.50;99.90;;;;;;1859424;76;21072;-83
2023/07/01 12:32:27;;;;;;;11.03;6.12;;;28.40;99.90;;;;;;1899048;74;21547;-84
2023/07/01 12:35:00;;;;;;;6.25;4.50;;;28.40;99.90;;;;;;1812054;77;21174;-83
2023/07/01 12:37:32;;;;;;;10.23;4.62;;;28.40;99.90;;;;;;1856968;76;21186;-81
2023/07/01 12:40:11;;;;;;;7.28;3.90;;;28.40;99.90;;;;;;1841754;76;21592;-84
2023/07/01 12:42:45;;;;;;;8.63;4.05;;;28.40;99.90;;;;;;1836858;78;21643;-83
2023/07/01 12:45:22;;;;;;;8.45;5.17;;;28.40;99.90;;;;;;1802711;77;21103;-82
2023/07/01 12:47:56;;;;;;;5.65;3.85;;;28.40;99.90;;;;;;1846422;76;21145;-82
2023/07/01 12:50:34;;;;;;;8.83;3.98;;;28.40;99.90;;;;;;1816284;78;21137;-81
2023/07/01 12:53:08;;;;;;;7.22;3.17;;;28.50;99.90;;;;;;1807722;78;21183;-84
2023/07/01 12:55:45;;;;;;;6.12;3.45;;;28.40;99.90;;;;;;1817092;76;21115;-81
2023/07/01 12:58:19;;;;;;;6.20;3.72;;;28.40;99.90;;;;;;1852867;76;21061;-81
2023/07/01 13:00:56;;;;;;;9.35;3.90;;;28.40;99.90;;;;;;1838334;78;21089;-80
2023/07/01 13:03:35;;;;;;;6.80;3.55;;;28.40;99.90;;;;;;1828773;76;21224;-76
2023/07/01 13:06:30;;;;;;;6.62;3.33;;;28.40;99.90;;;;;;1846802;76;21092;-79
2023/07/01 13:09:06;;;;;;;6.15;3.35;;;28.40;99.90;;;;;;1876893;76;21059;-82
2023/07/01 13:11:38;;;;;;;8.03;4.00;;;28.40;99.90;;;;;;1879818;75;21047;-80
2023/07/01 13:14:15;;;;;;;8.05;3.42;;;28.50;99.90;;;;;;1831022;77;21165;-81
2023/07/01 13:16:48;;;;;;;5.25;3.45;;;28.40;99.90;;;;;;1789215;79;21119;-79
2023/07/01 13:19:23;;;;;;;;;;;28.40;99.90;;;;;;1806263;78;21600;-80
2023/07/01 13:21:55;;;;;;;7.75;3.55;;;28.50;99.90;;;;;;1870568;76;20450;-85
2023/07/01 13:24:27;;;;;;;6.62;3.80;;;28.50;99.90;;;;;;1843317;77;21087;-85
2023/07/01 13:27:03;;;;;;;4.50;2.98;;;28.50;99.90;;;;;;1849254;75;21544;-85
2023/07/01 13:29:35;;;;;;;5.42;3.08;;;28.50;99.90;;;;;;1841563;76;21096;-81